Time;durP1;ratioP1;P1;durP2;ratioP2;P2;SDS_P1;SDS_P2;PMS_P1;PMS_P2;Temp;Humidity;BMP_temperature;BMP_pressure;BME280_temperature;BME280_humidity;BME280_pressure;Samples;Min_cycle;Max_cycle;Signal;HPM_P1;HPM_P2
2024/01/20 00:01:44;;;;;;;10.47;4.83;;;0.80;99.90;;;;;;5018117;28;20471;-66
2024/01/20 00:04:11;;;;;;;11.17;4.77;;;0.90;99.90;;;;;;5017957;28;20415;-65
2024/01/20 00:06:38;;;;;;;11.23;6.07;;;0.90;99.90;;;;;;5018304;28;20435;-65
2024/01/20 00:09:07;;;;;;;8.73;3.43;;;0.90;99.90;;;;;;5018066;28;20442;-66
2024/01/20 00:11:34;;;;;;;5.57;3.70;;;0.90;99.90;;;;;;5018043;28;20526;-64
2024/01/20 00:14:02;;;;;;;10.93;4.73;;;0.80;99.90;;;;;;5018683;28;20444;-62
2024/01/20 00:16:29;;;;;;;8.00;3.30;;;0.80;99.90;;;;;;5018138;28;20442;-65
2024/01/20 00:18:56;;;;;;;10.30;4.80;;;0.80;99.90;;;;;;5017932;28;20460;-66
2024/01/20 00:21:25;;;;;;;7.17;4.00;;;0.80;99.90;;;;;;5017270;28;20556;-65
2024/01/20 00:23:53;;;;;;;7.17;4.20;;;0.80;99.90;;;;;;5018091;28;20458;-64
2024/01/20 00:26:22;;;;;;;11.40;4.77;;;0.80;99.90;;;;;;5018269;28;20432;-64
2024/01/20 00:28:48;;;;;;;9.40;3.27;;;0.90;99.90;;;;;;5018321;28;20487;-64
2024/01/20 00:31:18;;;;;;;7.80;4.00;;;0.90;99.90;;;;;;5018535;28;20465;-65
2024/01/20 00:33:45;;;;;;;7.60;4.33;;;0.90;99.90;;;;;;5017889;28;20444;-64
2024/01/20 00:36:12;;;;;;;8.07;3.63;;;0.90;99.90;;;;;;5017261;28;20445;-65
2024/01/20 00:38:41;;;;;;;9.13;4.10;;;0.90;99.90;;;;;;5017845;28;20504;-64
2024/01/20 00:41:11;;;;;;;7.93;4.53;;;0.90;99.90;;;;;;5017461;28;20480;-65
2024/01/20 00:43:38;;;;;;;13.83;4.70;;;0.90;99.90;;;;;;5017794;28;20467;-64
2024/01/20 00:46:05;;;;;;;9.53;3.40;;;0.90;99.90;;;;;;5017317;28;20497;-61
2024/01/20 00:48:33;;;;;;;10.03;3.90;;;0.90;99.90;;;;;;5018046;28;20477;-65
2024/01/20 00:51:00;;;;;;;5.93;4.50;;;0.90;99.90;;;;;;5017472;28;20493;-65
2024/01/20 00:53:29;;;;;;;10.30;3.97;;;0.90;99.90;;;;;;5017333;28;20470;-64
2024/01/20 00:55:56;;;;;;;12.30;4.70;;;0.90;99.90;;;;;;5012430;28;20525;-65
2024/01/20 00:58:23;;;;;;;19.53;5.43;;;0.90;99.90;;;;;;5010498;28;20503;-66
2024/01/20 01:00:50;;;;;;;11.50;4.53;;;0.90;99.90;;;;;;5012647;28;20452;-66
2024/01/20 01:03:20;;;;;;;11.00;4.30;;;0.90;99.90;;;;;;5012040;28;20551;-65
2024/01/20 01:05:48;;;;;;;6.10;4.13;;;0.90;99.90;;;;;;5010914;28;20811;-64
2024/01/20 01:08:15;;;;;;;7.63;3.90;;;0.90;99.90;;;;;;5012119;28;20488;-65
2024/01/20 01:10:42;;;;;;;6.03;3.97;;;0.90;99.90;;;;;;5012619;28;20485;-66
2024/01/20 01:13:09;;;;;;;8.23;4.00;;;0.90;99.90;;;;;;5011670;28;20508;-64
2024/01/20 01:15:36;;;;;;;5.70;3.30;;;0.80;99.90;;;;;;5011263;28;20449;-64
2024/01/20 01:18:03;;;;;;;11.07;5.90;;;0.80;99.90;;;;;;5011604;28;20473;-64
2024/01/20 01:20:30;;;;;;;12.60;4.47;;;0.90;99.90;;;;;;5012611;28;20457;-64
2024/01/20 01:22:59;;;;;;;11.80;4.80;;;0.90;99.90;;;;;;5013606;28;20446;-65
2024/01/20 01:25:26;;;;;;;9.83;4.87;;;0.90;99.90;;;;;;5013128;28;20439;-64
2024/01/20 01:27:55;;;;;;;5.23;3.23;;;0.80;99.90;;;;;;5014329;28;20469;-62
2024/01/20 01:30:22;;;;;;;16.30;6.47;;;0.80;99.90;;;;;;5017588;28;20429;-65
2024/01/20 01:32:52;;;;;;;10.73;4.70;;;0.80;99.90;;;;;;5016157;28;20469;-65
2024/01/20 01:35:22;;;;;;;9.80;4.00;;;0.80;99.90;;;;;;5016644;28;20450;-65
2024/01/20 01:37:49;;;;;;;10.80;4.60;;;0.90;99.90;;;;;;5016608;28;20914;-62
2024/01/20 01:40:17;;;;;;;11.43;3.97;;;0.90;99.90;;;;;;5017009;28;20435;-65
2024/01/20 01:42:45;;;;;;;7.00;2.60;;;0.80;99.90;;;;;;5016967;28;20529;-65
2024/01/20 01:45:12;;;;;;;5.90;4.57;;;0.80;99.90;;;;;;5016831;28;20474;-64
2024/01/20 01:47:41;;;;;;;8.03;5.10;;;0.80;99.90;;;;;;5016854;28;20461;-65
2024/01/20 01:50:09;;;;;;;7.27;4.47;;;0.80;99.90;;;;;;5016289;28;20484;-65
2024/01/20 01:52:36;;;;;;;13.17;4.70;;;0.80;99.90;;;;;;5017587;28;20481;-66
2024/01/20 01:55:05;;;;;;;10.03;4.80;;;0.80;99.90;;;;;;5017263;28;20442;-64
2024/01/20 01:57:35;;;;;;;17.40;6.90;;;0.80;99.90;;;;;;5017438;28;20465;-63
2024/01/20 02:00:04;;;;;;;11.53;4.93;;;0.80;99.90;;;;;;5017049;28;20472;-64
2024/01/20 02:02:34;;;;;;;12.90;5.10;;;0.80;99.90;;;;;;5016345;28;20443;-66
2024/01/20 02:05:00;;;;;;;8.07;5.33;;;0.80;99.90;;;;;;5017447;28;20452;-63
2024/01/20 02:07:30;;;;;;;9.90;4.93;;;0.80;99.90;;;;;;5018166;28;20429;-63
2024/01/20 02:09:57;;;;;;;9.80;4.87;;;0.80;99.90;;;;;;5020240;28;20457;-63
2024/01/20 02:12:24;;;;;;;9.67;5.97;;;0.80;99.90;;;;;;5021768;28;20457;-65
2024/01/20 02:14:56;;;;;;;9.00;5.10;;;0.70;99.90;;;;;;5021127;28;20468;-63
2024/01/20 02:17:22;;;;;;;12.03;5.70;;;0.80;99.90;;;;;;5021241;28;20408;-64
2024/01/20 02:19:49;;;;;;;11.87;5.43;;;0.80;99.90;;;;;;5019893;28;20483;-65
2024/01/20 02:22:18;;;;;;;10.83;4.70;;;0.80;99.90;;;;;;5019974;28;20445;-65
2024/01/20 02:24:48;;;;;;;8.47;5.10;;;0.80;99.90;;;;;;5019505;28;20510;-64
2024/01/20 02:27:15;;;;;;;16.37;6.93;;;0.80;99.90;;;;;;5019197;28;20449;-65
2024/01/20 02:29:44;;;;;;;11.53;6.00;;;0.80;99.90;;;;;;5018406;28;20480;-65
2024/01/20 02:32:15;;;;;;;10.30;5.13;;;0.90;99.90;;;;;;5019014;28;20476;-65
2024/01/20 02:34:45;;;;;;;9.07;4.43;;;0.90;99.90;;;;;;5018193;28;20489;-66
2024/01/20 02:37:12;;;;;;;8.60;4.80;;;0.90;99.90;;;;;;5018252;28;20475;-67
2024/01/20 02:39:40;;;;;;;10.27;4.50;;;0.90;99.90;;;;;;5018426;28;20457;-65
2024/01/20 02:42:08;;;;;;;11.53;6.10;;;0.90;99.90;;;;;;5017910;28;20429;-65
2024/01/20 02:44:34;;;;;;;10.37;5.70;;;0.90;99.90;;;;;;5017951;28;20510;-64
2024/01/20 02:47:01;;;;;;;23.70;6.60;;;0.90;99.90;;;;;;5018363;28;20441;-65
2024/01/20 02:49:28;;;;;;;7.50;5.43;;;0.90;99.90;;;;;;5017893;28;20472;-65
2024/01/20 02:51:55;;;;;;;5.47;3.93;;;1.00;99.90;;;;;;5018199;28;20475;-66
2024/01/20 02:54:22;;;;;;;12.67;5.30;;;1.00;99.90;;;;;;5018572;28;20439;-63
2024/01/20 02:56:50;;;;;;;11.40;5.30;;;1.00;99.90;;;;;;5018795;28;20431;-64
2024/01/20 02:59:17;;;;;;;21.03;6.13;;;1.00;99.90;;;;;;5018049;28;20445;-65
2024/01/20 03:01:44;;;;;;;7.83;4.63;;;1.00;99.90;;;;;;5018900;28;20442;-64
2024/01/20 03:04:13;;;;;;;14.37;5.33;;;1.00;99.90;;;;;;5018692;28;20433;-65
2024/01/20 03:06:42;;;;;;;9.77;4.93;;;1.10;99.90;;;;;;5018330;28;20461;-65
2024/01/20 03:09:09;;;;;;;10.97;6.33;;;1.10;99.90;;;;;;5018286;28;20453;-65
2024/01/20 03:11:36;;;;;;;11.23;6.10;;;1.00;99.90;;;;;;5018977;28;20588;-65
2024/01/20 03:14:13;;;;;;;7.60;5.10;;;1.10;99.90;;;;;;5018622;28;20471;-65
2024/01/20 03:16:40;;;;;;;20.00;7.50;;;1.10;99.90;;;;;;5018140;28;20415;-66
2024/01/20 03:19:07;;;;;;;7.93;4.93;;;1.10;99.90;;;;;;5017968;28;20455;-63
2024/01/20 03:21:34;;;;;;;6.17;4.47;;;1.10;99.90;;;;;;5017854;28;20453;-65
2024/01/20 03:24:01;;;;;;;11.77;6.00;;;1.10;99.90;;;;;;5018177;28;20486;-64
2024/01/20 03:26:30;;;;;;;9.23;4.47;;;1.10;99.90;;;;;;5018689;28;20464;-63
2024/01/20 03:28:57;;;;;;;7.90;4.83;;;1.10;99.90;;;;;;5018902;28;20488;-64
2024/01/20 03:31:25;;;;;;;12.60;5.60;;;1.10;99.90;;;;;;5018753;28;20470;-62
2024/01/20 03:33:55;;;;;;;9.67;5.20;;;1.10;99.90;;;;;;5018578;28;20466;-65
2024/01/20 03:36:22;;;;;;;9.27;5.90;;;1.10;99.90;;;;;;5017328;28;20470;-66
2024/01/20 03:38:49;;;;;;;7.10;4.20;;;1.10;99.90;;;;;;5017144;28;20453;-64
2024/01/20 03:41:16;;;;;;;10.63;6.03;;;1.10;99.90;;;;;;5016783;28;20462;-66
2024/01/20 03:43:45;;;;;;;17.03;6.43;;;1.10;99.90;;;;;;5017336;28;20933;-65
2024/01/20 03:46:12;;;;;;;13.87;6.73;;;1.10;99.90;;;;;;5016939;28;20482;-66
2024/01/20 03:48:41;;;;;;;9.07;5.40;;;1.10;99.90;;;;;;5016611;28;20734;-65
2024/01/20 03:51:11;;;;;;;18.37;5.90;;;1.00;99.90;;;;;;5016479;28;20492;-65
2024/01/20 03:53:38;;;;;;;12.93;6.30;;;1.10;99.90;;;;;;5017245;28;20482;-65
2024/01/20 03:56:08;;;;;;;15.93;7.27;;;1.10;99.90;;;;;;5017149;28;20470;-64
2024/01/20 03:58:37;;;;;;;7.57;5.37;;;1.10;99.90;;;;;;5017224;28;20421;-64
2024/01/20 04:01:05;;;;;;;14.97;7.30;;;1.20;99.90;;;;;;5016841;28;20465;-66
2024/01/20 04:03:34;;;;;;;9.80;6.20;;;1.20;99.90;;;;;;5017665;28;20437;-66
2024/01/20 04:06:03;;;;;;;12.10;6.83;;;1.20;99.90;;;;;;5017922;28;20478;-64
2024/01/20 04:08:30;;;;;;;8.60;4.83;;;1.20;99.90;;;;;;5018332;28;20434;-66
2024/01/20 04:10:57;;;;;;;9.43;5.43;;;1.20;99.90;;;;;;5018393;28;20468;-65
2024/01/20 04:13:24;;;;;;;15.73;7.37;;;1.20;99.90;;;;;;5019044;28;20472;-60
2024/01/20 04:15:55;;;;;;;15.30;7.00;;;1.20;99.90;;;;;;5019803;28;20472;-66
2024/01/20 04:18:25;;;;;;;11.40;6.80;;;1.30;99.90;;;;;;5019650;28;20453;-64
2024/01/20 04:20:52;;;;;;;8.30;5.70;;;1.30;99.90;;;;;;5019190;28;20466;-62
2024/01/20 04:23:20;;;;;;;7.93;4.87;;;1.30;99.90;;;;;;5019131;28;20430;-62
2024/01/20 04:25:47;;;;;;;13.53;6.73;;;1.20;99.90;;;;;;5019482;28;20488;-63
2024/01/20 04:28:14;;;;;;;10.37;5.60;;;1.30;99.90;;;;;;5018205;28;20427;-66
2024/01/20 04:30:43;;;;;;;10.47;6.13;;;1.30;99.90;;;;;;5018804;28;20429;-65
2024/01/20 04:33:10;;;;;;;11.43;6.10;;;1.20;99.90;;;;;;5019116;28;20457;-65
2024/01/20 04:35:38;;;;;;;13.20;5.30;;;1.20;99.90;;;;;;5016929;28;20437;-66
2024/01/20 04:38:07;;;;;;;11.47;6.30;;;1.20;99.90;;;;;;5016765;28;20433;-66
2024/01/20 04:40:35;;;;;;;10.73;5.87;;;1.20;99.90;;;;;;5016438;28;20477;-65
2024/01/20 04:43:02;;;;;;;9.53;6.07;;;1.20;99.90;;;;;;5017490;28;20457;-65
2024/01/20 04:45:29;;;;;;;8.23;6.17;;;1.10;99.90;;;;;;5016238;28;20435;-64
2024/01/20 04:47:57;;;;;;;12.87;7.27;;;1.10;99.90;;;;;;5016729;28;20473;-65
2024/01/20 04:50:25;;;;;;;9.97;6.17;;;1.10;99.90;;;;;;5016494;28;20449;-65
2024/01/20 04:52:52;;;;;;;10.80;5.50;;;1.10;99.90;;;;;;5016585;28;20474;-64
2024/01/20 04:55:19;;;;;;;14.47;6.27;;;1.10;99.90;;;;;;5017142;28;20488;-65
2024/01/20 04:57:47;;;;;;;16.83;6.23;;;1.00;99.90;;;;;;5016550;28;20456;-64
2024/01/20 05:00:20;;;;;;;10.30;5.93;;;1.00;99.90;;;;;;5015910;28;20445;-65
2024/01/20 05:02:47;;;;;;;10.23;5.87;;;1.00;99.90;;;;;;5015852;28;20474;-65
2024/01/20 05:05:14;;;;;;;9.63;6.83;;;1.00;99.90;;;;;;5016344;28;20450;-66
2024/01/20 05:07:41;;;;;;;10.23;4.77;;;1.00;99.90;;;;;;5016198;28;20469;-65
2024/01/20 05:10:08;;;;;;;12.60;6.63;;;1.00;99.90;;;;;;5015826;28;20461;-65
2024/01/20 05:12:35;;;;;;;10.33;6.50;;;1.00;99.90;;;;;;5015918;28;20564;-65
2024/01/20 05:15:09;;;;;;;14.43;7.80;;;1.00;99.90;;;;;;5014971;28;20449;-64
2024/01/20 05:17:35;;;;;;;15.33;5.97;;;1.00;99.90;;;;;;5015459;28;20508;-66
2024/01/20 05:20:02;;;;;;;8.67;5.70;;;1.00;99.90;;;;;;5015489;28;20443;-65
2024/01/20 05:22:29;;;;;;;10.23;6.60;;;1.00;99.90;;;;;;5015226;28;20467;-66
2024/01/20 05:24:56;;;;;;;11.17;6.77;;;1.00;99.90;;;;;;5015446;28;20480;-66
2024/01/20 05:27:23;;;;;;;7.30;4.53;;;1.00;99.90;;;;;;5016069;28;20561;-64
2024/01/20 05:29:50;;;;;;;10.97;6.70;;;1.10;99.90;;;;;;5015428;28;20482;-64
2024/01/20 05:32:26;;;;;;;9.40;5.47;;;1.10;99.90;;;;;;5015438;28;20543;-65
2024/01/20 05:34:53;;;;;;;17.70;4.33;;;1.10;99.90;;;;;;5015621;28;20431;-66
2024/01/20 05:37:20;;;;;;;10.10;6.13;;;1.10;99.90;;;;;;5015055;28;20483;-66
2024/01/20 05:39:47;;;;;;;10.10;5.03;;;1.10;99.90;;;;;;5015413;28;20475;-64
2024/01/20 05:42:14;;;;;;;15.33;5.87;;;1.20;99.90;;;;;;5014701;28;20453;-64
2024/01/20 05:44:41;;;;;;;12.53;7.13;;;1.20;99.90;;;;;;5014848;28;20460;-65
2024/01/20 05:47:08;;;;;;;9.60;5.70;;;1.30;99.90;;;;;;5015703;28;20477;-65
2024/01/20 05:49:36;;;;;;;16.83;8.17;;;1.30;99.90;;;;;;5016097;28;20440;-65
2024/01/20 05:52:03;;;;;;;24.17;8.83;;;1.30;99.90;;;;;;5015595;28;20469;-64
2024/01/20 05:54:30;;;;;;;10.47;5.27;;;1.40;99.90;;;;;;5015564;28;20481;-63
2024/01/20 05:56:57;;;;;;;15.03;6.40;;;1.40;99.90;;;;;;5015688;28;20450;-65
2024/01/20 05:59:23;;;;;;;11.50;6.27;;;1.50;99.90;;;;;;5016538;28;20442;-64
2024/01/20 06:01:51;;;;;;;11.40;5.43;;;1.50;99.90;;;;;;5016358;28;20446;-64
2024/01/20 06:04:18;;;;;;;10.13;6.47;;;1.50;99.90;;;;;;5016502;28;20521;-65
2024/01/20 06:06:46;;;;;;;13.07;6.97;;;1.50;99.90;;;;;;5016921;28;20457;-65
2024/01/20 06:09:13;;;;;;;13.97;5.80;;;1.50;99.90;;;;;;5016528;28;20433;-64
2024/01/20 06:11:41;;;;;;;8.00;6.40;;;1.50;99.90;;;;;;5016300;28;20432;-64
2024/01/20 06:14:07;;;;;;;13.63;6.40;;;1.50;99.90;;;;;;5015608;28;20477;-65
2024/01/20 06:16:38;;;;;;;13.93;6.33;;;1.40;99.90;;;;;;5016088;28;20470;-66
2024/01/20 06:19:05;;;;;;;15.17;6.73;;;1.40;99.90;;;;;;5015513;28;20468;-65
2024/01/20 06:21:32;;;;;;;17.27;7.60;;;1.30;99.90;;;;;;5014940;28;20460;-64
2024/01/20 06:24:00;;;;;;;10.43;6.00;;;1.30;99.90;;;;;;5016126;28;20599;-65
2024/01/20 06:26:27;;;;;;;12.30;6.73;;;1.30;99.90;;;;;;5017042;28;20439;-64
2024/01/20 06:28:54;;;;;;;17.47;8.43;;;1.20;99.90;;;;;;5015433;28;20486;-65
2024/01/20 06:31:24;;;;;;;17.43;7.83;;;1.20;99.90;;;;;;5017077;28;20461;-64
2024/01/20 06:33:51;;;;;;;12.90;7.10;;;1.20;99.90;;;;;;5016209;28;20486;-66
2024/01/20 06:36:21;;;;;;;11.33;6.93;;;1.20;99.90;;;;;;5015236;28;20453;-66
2024/01/20 06:38:48;;;;;;;14.10;6.90;;;1.10;99.90;;;;;;5015921;28;20464;-65
2024/01/20 06:41:17;;;;;;;10.50;6.17;;;1.10;99.90;;;;;;5016179;28;20462;-65
2024/01/20 06:43:44;;;;;;;12.40;6.07;;;1.10;99.90;;;;;;5016630;28;20465;-65
2024/01/20 06:46:11;;;;;;;14.97;7.83;;;1.10;99.90;;;;;;5016023;28;20461;-65
2024/01/20 06:48:37;;;;;;;7.23;4.80;;;1.10;99.90;;;;;;5015831;28;20469;-65
2024/01/20 06:51:06;;;;;;;12.87;6.00;;;1.10;99.90;;;;;;5015193;28;20445;-65
2024/01/20 06:53:36;;;;;;;10.03;6.33;;;1.20;99.90;;;;;;5015190;28;20502;-65
2024/01/20 06:56:04;;;;;;;4.43;3.40;;;1.10;99.90;;;;;;5017174;28;20507;-64
2024/01/20 06:58:32;;;;;;;10.83;6.90;;;1.10;99.90;;;;;;5018584;28;20474;-65
2024/01/20 07:00:59;;;;;;;14.70;7.33;;;1.10;99.90;;;;;;5018941;28;20449;-64
2024/01/20 07:03:26;;;;;;;11.70;6.13;;;1.20;99.90;;;;;;5019444;28;20894;-64
2024/01/20 07:05:53;;;;;;;10.50;6.10;;;1.20;99.90;;;;;;5018949;28;20444;-65
2024/01/20 07:08:20;;;;;;;11.77;6.27;;;1.20;99.90;;;;;;5019072;28;20480;-65
2024/01/20 07:10:47;;;;;;;16.50;8.20;;;1.20;99.90;;;;;;5018791;28;20495;-65
2024/01/20 07:13:14;;;;;;;12.77;6.90;;;1.20;99.90;;;;;;5018799;28;20549;-66
2024/01/20 07:15:43;;;;;;;18.40;7.53;;;1.20;99.90;;;;;;5018737;28;20420;-66
2024/01/20 07:18:10;;;;;;;15.17;7.00;;;1.20;99.90;;;;;;5018254;28;20483;-66
2024/01/20 07:20:36;;;;;;;16.00;7.70;;;1.30;99.90;;;;;;5018118;28;20427;-65
2024/01/20 07:23:04;;;;;;;10.37;8.13;;;1.30;99.90;;;;;;5019220;28;20446;-63
2024/01/20 07:25:33;;;;;;;14.07;6.80;;;1.30;99.90;;;;;;5018394;28;20436;-65
2024/01/20 07:28:00;;;;;;;12.67;7.90;;;1.40;99.90;;;;;;5018856;28;20499;-66
2024/01/20 07:30:27;;;;;;;13.23;8.13;;;1.40;99.90;;;;;;5018485;28;20452;-66
2024/01/20 07:32:58;;;;;;;16.10;6.70;;;1.40;99.90;;;;;;5018501;28;20453;-65
2024/01/20 07:35:25;;;;;;;19.33;7.30;;;1.50;99.90;;;;;;5018460;28;20421;-66
2024/01/20 07:38:11;;;;;;;12.87;7.30;;;1.60;99.90;;;;;;5017982;28;20454;-64
2024/01/20 07:40:38;;;;;;;10.37;6.20;;;1.60;99.90;;;;;;5018621;28;20448;-65
2024/01/20 07:43:04;;;;;;;13.80;7.20;;;1.60;99.90;;;;;;5018298;28;20474;-63
2024/01/20 07:45:31;;;;;;;14.37;8.20;;;1.60;99.90;;;;;;5018379;28;20437;-65
2024/01/20 07:48:00;;;;;;;17.30;7.80;;;1.60;99.90;;;;;;5018403;28;20454;-66
2024/01/20 07:50:27;;;;;;;17.93;9.27;;;1.60;99.90;;;;;;5018052;28;20478;-65
2024/01/20 07:52:54;;;;;;;12.97;7.27;;;1.70;99.90;;;;;;5018672;28;20439;-66
2024/01/20 07:55:21;;;;;;;13.40;5.70;;;1.70;99.90;;;;;;5017955;28;20498;-65
2024/01/20 07:57:48;;;;;;;11.37;7.07;;;1.80;99.90;;;;;;5018321;28;20425;-65
2024/01/20 08:00:17;;;;;;;13.07;6.90;;;1.80;99.90;;;;;;5018056;28;20479;-63
2024/01/20 08:02:43;;;;;;;11.23;7.57;;;1.80;99.90;;;;;;5017588;28;20480;-65
2024/01/20 08:05:12;;;;;;;21.90;7.00;;;1.90;99.90;;;;;;5017660;28;20485;-65
2024/01/20 08:07:39;;;;;;;11.00;6.13;;;1.90;99.90;;;;;;5017366;28;20458;-63
2024/01/20 08:10:07;;;;;;;11.33;7.57;;;1.90;99.90;;;;;;5018298;28;20469;-65
2024/01/20 08:12:34;;;;;;;16.00;7.43;;;1.90;99.90;;;;;;5017852;28;20460;-65
2024/01/20 08:15:00;;;;;;;9.13;4.73;;;1.80;99.90;;;;;;5017409;28;20521;-63
2024/01/20 08:17:27;;;;;;;18.83;8.97;;;1.80;99.90;;;;;;5017560;28;20439;-65
2024/01/20 08:19:54;;;;;;;9.53;6.03;;;1.80;99.90;;;;;;5017459;28;20462;-64
2024/01/20 08:22:23;;;;;;;8.00;5.47;;;1.90;99.90;;;;;;5018261;28;20457;-64
2024/01/20 08:24:49;;;;;;;13.07;6.60;;;1.80;99.90;;;;;;5019049;28;20464;-66
2024/01/20 08:27:16;;;;;;;12.10;7.20;;;1.80;99.90;;;;;;5018602;28;20540;-65
2024/01/20 08:29:43;;;;;;;8.43;4.90;;;1.80;99.90;;;;;;5018913;28;20468;-64
2024/01/20 08:32:10;;;;;;;8.90;6.37;;;1.90;99.90;;;;;;5017923;28;20451;-65
2024/01/20 08:34:41;;;;;;;11.70;5.73;;;1.90;99.90;;;;;;5017269;28;20506;-65
2024/01/20 08:37:10;;;;;;;13.27;7.53;;;1.90;99.90;;;;;;5017176;28;20426;-64
2024/01/20 08:39:38;;;;;;;11.37;6.63;;;1.90;99.90;;;;;;5017180;28;20488;-66
2024/01/20 08:42:09;;;;;;;15.00;7.57;;;2.00;99.90;;;;;;5017247;28;20469;-65
2024/01/20 08:44:37;;;;;;;13.30;7.27;;;2.00;99.90;;;;;;5017564;28;20450;-65
2024/01/20 08:47:06;;;;;;;9.80;7.07;;;2.00;99.90;;;;;;5017200;28;20474;-65
2024/01/20 08:49:33;;;;;;;11.07;7.00;;;2.10;99.90;;;;;;5017606;28;20434;-66
2024/01/20 08:52:03;;;;;;;9.93;6.43;;;2.10;99.90;;;;;;5017769;28;20434;-65
2024/01/20 08:54:30;;;;;;;16.00;7.27;;;2.10;99.90;;;;;;5018276;28;20517;-65
2024/01/20 08:56:58;;;;;;;11.97;7.97;;;2.10;99.90;;;;;;5017726;28;20425;-65
2024/01/20 08:59:25;;;;;;;15.13;6.20;;;2.10;99.90;;;;;;5017571;28;20442;-64
2024/01/20 09:01:54;;;;;;;9.93;6.43;;;2.20;99.90;;;;;;5017337;28;20458;-64
2024/01/20 09:04:21;;;;;;;12.80;6.50;;;2.20;99.90;;;;;;5016628;28;20525;-66
2024/01/20 09:06:51;;;;;;;7.83;5.57;;;2.20;99.90;;;;;;5015929;28;20458;-64
2024/01/20 09:09:18;;;;;;;8.97;6.50;;;2.20;99.90;;;;;;5017105;28;20450;-64
2024/01/20 09:11:48;;;;;;;15.40;6.73;;;2.30;99.90;;;;;;5016439;28;20451;-65
2024/01/20 09:14:19;;;;;;;22.50;6.93;;;2.30;99.90;;;;;;5016599;28;20493;-65
2024/01/20 09:16:46;;;;;;;11.33;5.80;;;2.40;99.90;;;;;;5017188;28;20427;-66
2024/01/20 09:19:14;;;;;;;10.90;6.93;;;2.40;99.90;;;;;;5016035;28;20458;-66
2024/01/20 09:21:47;;;;;;;14.80;6.80;;;2.40;99.90;;;;;;5016554;28;20449;-65
2024/01/20 09:24:14;;;;;;;9.50;5.97;;;2.40;99.90;;;;;;5016697;28;20440;-66
2024/01/20 09:26:41;;;;;;;11.80;6.90;;;2.40;99.90;;;;;;5016556;28;20447;-64
2024/01/20 09:29:08;;;;;;;10.00;5.33;;;2.40;99.90;;;;;;5016391;28;20454;-66
2024/01/20 09:31:36;;;;;;;12.47;6.00;;;2.40;99.90;;;;;;5015819;28;20486;-64
2024/01/20 09:34:06;;;;;;;14.20;6.90;;;2.40;99.90;;;;;;5016610;28;20453;-66
2024/01/20 09:36:33;;;;;;;20.63;6.00;;;2.40;99.90;;;;;;5016275;28;20468;-65
2024/01/20 09:38:59;;;;;;;10.63;6.50;;;2.40;99.90;;;;;;5015971;28;20474;-65
2024/01/20 09:41:30;;;;;;;9.67;6.40;;;2.40;99.90;;;;;;5016270;28;20540;-67
2024/01/20 09:43:58;;;;;;;10.13;5.07;;;2.40;99.90;;;;;;5015713;28;20478;-67
2024/01/20 09:46:25;;;;;;;11.93;6.60;;;2.40;99.90;;;;;;5015336;28;20482;-65
2024/01/20 09:48:55;;;;;;;10.93;6.20;;;2.40;99.90;;;;;;5015070;28;20428;-66
2024/01/20 09:51:28;;;;;;;10.20;6.07;;;2.30;99.90;;;;;;5015463;28;20582;-63
2024/01/20 09:53:58;;;;;;;15.20;7.10;;;2.30;99.90;;;;;;5061178;22;20493;-65
2024/01/20 09:56:28;;;;;;;11.30;6.00;;;2.20;99.90;;;;;;5014960;28;20471;-65
2024/01/20 09:58:58;;;;;;;11.10;7.13;;;2.30;99.90;;;;;;5014852;28;20452;-66
2024/01/20 10:01:28;;;;;;;8.27;6.10;;;2.30;99.90;;;;;;5015222;28;20498;-65
2024/01/20 10:04:01;;;;;;;5.07;4.57;;;2.30;99.90;;;;;;5014511;28;20453;-66
2024/01/20 10:06:33;;;;;;;13.90;6.70;;;2.40;99.90;;;;;;5014884;28;20479;-65
2024/01/20 10:09:03;;;;;;;11.37;6.13;;;2.50;99.90;;;;;;5015415;28;20434;-66
2024/01/20 10:11:30;;;;;;;14.50;7.70;;;2.50;99.90;;;;;;5014803;28;20480;-65
2024/01/20 10:13:57;;;;;;;8.83;5.93;;;2.50;99.90;;;;;;5014712;28;20485;-65
2024/01/20 10:16:24;;;;;;;15.13;7.50;;;2.50;99.90;;;;;;5013556;28;20534;-66
2024/01/20 10:18:51;;;;;;;19.77;7.17;;;2.60;99.90;;;;;;5014804;28;20522;-66
2024/01/20 10:21:23;;;;;;;12.43;5.93;;;2.70;99.90;;;;;;5014004;28;20500;-64
2024/01/20 10:23:50;;;;;;;16.50;7.43;;;2.80;99.90;;;;;;5013851;28;20432;-65
2024/01/20 10:26:18;;;;;;;7.30;4.27;;;2.80;99.90;;;;;;5015232;28;20479;-64
2024/01/20 10:28:46;;;;;;;8.43;4.33;;;3.00;99.90;;;;;;5015566;28;20496;-62
2024/01/20 10:31:12;;;;;;;10.70;5.57;;;3.20;99.90;;;;;;5018259;28;20469;-66
2024/01/20 10:33:39;;;;;;;10.90;6.50;;;3.20;99.90;;;;;;5020522;28;20430;-65
2024/01/20 10:36:10;;;;;;;15.03;6.73;;;3.20;99.90;;;;;;5020400;28;20462;-64
2024/01/20 10:38:39;;;;;;;7.40;5.33;;;3.20;99.90;;;;;;5020411;28;20416;-65
2024/01/20 10:41:08;;;;;;;7.50;5.20;;;3.20;99.90;;;;;;5018791;28;20436;-66
2024/01/20 10:43:48;;;;;;;6.23;5.13;;;3.50;99.90;;;;;;5018265;28;20428;-67
2024/01/20 10:46:23;;;;;;;12.67;6.00;;;3.90;99.90;;;;;;5018486;28;20461;-65
2024/01/20 10:48:53;;;;;;;9.43;3.80;;;3.90;99.90;;;;;;5017867;28;20443;-66
2024/01/20 10:51:27;;;;;;;10.03;5.73;;;3.70;99.90;;;;;;5017241;28;20431;-66
2024/01/20 10:53:58;;;;;;;12.07;7.10;;;3.50;99.90;;;;;;5016720;28;20509;-66
2024/01/20 10:56:26;;;;;;;12.03;5.80;;;3.30;99.90;;;;;;5016638;28;20526;-65
2024/01/20 10:59:04;;;;;;;14.97;6.87;;;3.10;99.90;;;;;;5016614;28;20457;-66
2024/01/20 11:01:31;;;;;;;10.20;5.40;;;3.00;99.90;;;;;;5016846;28;20450;-65
2024/01/20 11:03:59;;;;;;;8.30;5.40;;;3.00;99.90;;;;;;5012999;28;20448;-67
2024/01/20 11:06:26;;;;;;;12.13;5.90;;;3.10;99.90;;;;;;4998809;28;20447;-69
2024/01/20 11:08:53;;;;;;;8.80;5.73;;;3.20;99.90;;;;;;4999593;28;20489;-68
2024/01/20 11:11:26;;;;;;;13.73;6.30;;;3.20;99.90;;;;;;4999709;28;20448;-68
2024/01/20 11:13:57;;;;;;;9.90;4.73;;;3.20;99.90;;;;;;4999272;28;20451;-68
2024/01/20 11:16:24;;;;;;;12.07;6.50;;;3.20;99.90;;;;;;4999973;28;20425;-66
2024/01/20 11:18:51;;;;;;;14.00;6.63;;;3.20;99.90;;;;;;4998402;28;20527;-69
2024/01/20 11:21:19;;;;;;;11.33;6.10;;;3.20;99.90;;;;;;5000279;28;20444;-68
2024/01/20 11:23:47;;;;;;;10.10;6.27;;;3.10;99.90;;;;;;5000545;28;20436;-67
2024/01/20 11:26:15;;;;;;;12.90;5.27;;;3.20;99.90;;;;;;4999836;28;20527;-66
2024/01/20 11:28:44;;;;;;;13.53;7.03;;;3.20;99.90;;;;;;4998044;28;20477;-67
2024/01/20 11:31:20;;;;;;;14.37;7.50;;;3.40;99.90;;;;;;4998214;28;20943;-69
2024/01/20 11:33:47;;;;;;;10.07;5.03;;;3.40;99.90;;;;;;4998027;28;20479;-63
2024/01/20 11:36:15;;;;;;;12.33;5.80;;;3.50;99.90;;;;;;5006601;28;20498;-64
2024/01/20 11:38:46;;;;;;;5.37;3.43;;;3.50;99.90;;;;;;5017579;28;20528;-65
2024/01/20 11:41:18;;;;;;;9.10;6.00;;;3.50;99.90;;;;;;5017025;28;20436;-64
2024/01/20 11:43:47;;;;;;;12.10;6.37;;;3.40;99.90;;;;;;5018691;28;20538;-65
2024/01/20 11:46:15;;;;;;;12.90;5.90;;;3.50;99.90;;;;;;5018930;28;20447;-67
2024/01/20 11:48:47;;;;;;;9.50;5.70;;;3.50;99.90;;;;;;5038110;28;20488;-67
2024/01/20 11:51:14;;;;;;;9.90;4.90;;;3.60;99.90;;;;;;5038332;28;20518;-65
2024/01/20 11:53:41;;;;;;;10.70;5.20;;;3.50;99.90;;;;;;5037344;28;20478;-65
2024/01/20 11:56:10;;;;;;;13.73;6.03;;;3.50;99.90;;;;;;5037386;28;20490;-65
2024/01/20 11:58:36;;;;;;;10.23;5.50;;;3.60;99.90;;;;;;5037946;28;20481;-69
2024/01/20 12:01:05;;;;;;;14.50;6.80;;;3.60;99.90;;;;;;5039421;28;20426;-69
2024/01/20 12:03:32;;;;;;;12.23;6.47;;;3.60;99.90;;;;;;5037864;28;20499;-68
2024/01/20 12:06:05;;;;;;;8.67;5.20;;;3.60;99.90;;;;;;5037899;28;20455;-68
2024/01/20 12:08:36;;;;;;;8.20;4.30;;;3.60;99.90;;;;;;5038230;28;20441;-70
2024/01/20 12:11:06;;;;;;;10.80;6.57;;;3.70;99.90;;;;;;5038519;28;20449;-69
2024/01/20 12:13:35;;;;;;;11.60;5.13;;;3.70;99.90;;;;;;5038810;28;20427;-69
2024/01/20 12:16:09;;;;;;;9.17;5.20;;;3.70;99.90;;;;;;5037628;28;20492;-69
2024/01/20 12:18:36;;;;;;;23.13;6.47;;;3.70;99.90;;;;;;5037885;28;20432;-65
2024/01/20 12:21:04;;;;;;;11.23;5.07;;;3.60;99.90;;;;;;5036766;28;20427;-66
2024/01/20 12:23:33;;;;;;;6.57;4.33;;;3.60;99.90;;;;;;5037822;28;20445;-69
2024/01/20 12:26:03;;;;;;;7.77;4.60;;;3.60;99.90;;;;;;5038262;28;20442;-68
2024/01/20 12:28:33;;;;;;;13.07;5.00;;;3.60;99.90;;;;;;5037202;28;20433;-66
2024/01/20 12:31:03;;;;;;;12.30;6.00;;;3.60;99.90;;;;;;5037119;28;20434;-68
2024/01/20 12:33:36;;;;;;;15.20;7.90;;;3.70;99.90;;;;;;5036815;28;20454;-69
2024/01/20 12:36:06;;;;;;;6.13;4.50;;;3.60;99.90;;;;;;5036528;28;20475;-67
2024/01/20 12:38:33;;;;;;;11.37;6.67;;;3.70;99.90;;;;;;5033317;28;20443;-65
2024/01/20 12:41:00;;;;;;;19.03;6.20;;;3.90;99.90;;;;;;5016655;28;20479;-66
2024/01/20 12:43:27;;;;;;;11.13;6.57;;;3.80;99.90;;;;;;5016445;28;20451;-65
2024/01/20 12:45:58;;;;;;;12.17;6.00;;;3.80;99.90;;;;;;5016374;28;20472;-66
2024/01/20 12:48:25;;;;;;;10.37;4.63;;;3.90;99.90;;;;;;5016445;28;20454;-67
2024/01/20 12:51:04;;;;;;;9.93;5.30;;;3.90;99.90;;;;;;5018626;28;20478;-67
2024/01/20 12:53:33;;;;;;;14.77;6.43;;;3.90;99.90;;;;;;5018435;28;20432;-71
2024/01/20 12:56:00;;;;;;;14.30;6.20;;;3.90;99.90;;;;;;5019431;28;20530;-71